PAED METAR and TAF weather

Enter ICAO airport designator
Station Type Date Time Source
PAED METAR 2021/07/29 18:35 UTC NOAA

PAED 291835Z 00000KT 5SM -DZ BR FEW003 BKN005 OVC010 12/10 A3022 RMK AO2A VIS 1 7/8 RWY34 DZE14 CIG 004 RWY16 CIG 003 RWY24 SLP229 $


Station Type Date Time Source
PAED Decoded METAR 2021/07/29 18:35 UTC NOAA

Anchorage, Elmendorf Air Force Base, AK, United States (PAED) 61-15-11N 149-47-38W 59M
Jul 29, 2021 - 02:35 PM EDT / 2021.07.29 1835 UTC
Wind: Calm:0
Visibility: 5 mile(s):0
Sky conditions: overcast
Weather: light drizzle; mist
Temperature: 53 F (12 C)
Dew Point: 50 F (10 C)
Relative Humidity: 87%
Pressure (altimeter): 30.22 in. Hg (1023 hPa)
ob: PAED 291835Z 00000KT 5SM -DZ BR FEW003 BKN005 OVC010 12/10 A3022 RMK AO2A VIS 1 7/8 RWY34 DZE14 CIG 004 RWY16 CIG 003 RWY24 SLP229
cycle: 18

Station Type Date Time Source
PAED TAF 2021/07/29 18:03 UTC NOAA

TAF TAF PAED 291800Z 2918/3024 VRB05KT 6000 -DZ BR FEW003 BKN004 OVC010 QNH3020INS
TEMPO 2918/2920 4000 -DZ BR BKN003 OVC004
BECMG 2920/2921 VRB05KT 8000 -DZ BR FEW005 BKN008 OVC010 QNH3018INS
BECMG 2923/2924 VRB06KT 9000 BR FEW007 BKN010 OVC015 QNH3016INS
BECMG 3002/3003 23008KT 9999 NSW FEW010 SCT015 BKN025 BKN060 QNH3015INS
BECMG 3006/3007 VRB06KT 9999 SCT010 BKN020 OVC030 QNH3015INS
BECMG 3010/3011 VRB05KT 9000 BR SCT008 BKN010 OVC015 QNH3013INS TX16/3001Z TN10/3013Z

Example: see airport list